Time;durP1;ratioP1;P1;durP2;ratioP2;P2;SDS_P1;SDS_P2;PMS_P1;PMS_P2;Temp;Humidity;BMP_temperature;BMP_pressure;BME280_temperature;BME280_humidity;BME280_pressure;Samples;Min_cycle;Max_cycle;Signal;HPM_P1;HPM_P2
2021/12/06 00:01:46;;;;;;;;;3.33;3.33;;;;;;;;5144090;28;11504;-66
2021/12/06 00:04:37;;;;;;;;;3.00;3.00;;;;;;;;5161031;28;9670;-67
2021/12/06 00:07:12;;;;;;;;;6.00;4.00;;;;;;;;5144063;28;10000;-68
2021/12/06 00:09:44;;;;;;;;;1.00;1.00;;;;;;;;5144576;28;9669;-67
2021/12/06 00:12:16;;;;;;;;;3.33;3.33;;;;;;;;5260529;28;9577;-67
2021/12/06 00:14:47;;;;;;;;;0.00;0.00;;;;;;;;5232652;28;9815;-67
2021/12/06 00:17:37;;;;;;;;;1.00;1.00;;;;;;;;5235117;28;9468;-66
2021/12/06 00:20:11;;;;;;;;;0.00;0.00;;;;;;;;5232658;28;9640;-67
2021/12/06 00:22:42;;;;;;;;;0.00;0.00;;;;;;;;5267055;28;9474;-67
2021/12/06 00:25:15;;;;;;;;;3.00;3.00;;;;;;;;5232256;28;9565;-67
2021/12/06 00:27:46;;;;;;;;;3.67;3.67;;;;;;;;5267255;28;9710;-67
2021/12/06 00:30:17;;;;;;;;;8.75;8.00;;;;;;;;5232603;28;9577;-66
2021/12/06 00:32:48;;;;;;;;;4.00;4.00;;;;;;;;5249166;28;9900;-67
2021/12/06 00:35:38;;;;;;;;;19.00;19.00;;;;;;;;5249911;28;10031;-67
2021/12/06 00:38:09;;;;;;;;;21.00;20.75;;;;;;;;5249217;28;10123;-67
2021/12/06 00:40:43;;;;;;;;;9.00;9.00;;;;;;;;5266917;28;8814;-66
2021/12/06 00:43:15;;;;;;;;;11.00;10.50;;;;;;;;5249066;28;10328;-66
2021/12/06 00:45:46;;;;;;;;;6.50;6.50;;;;;;;;5249838;28;10186;-66
2021/12/06 00:48:18;;;;;;;;;4.00;4.00;;;;;;;;5235969;28;10063;-66
2021/12/06 00:50:49;;;;;;;;;0.75;0.75;;;;;;;;5252980;28;9887;-64
2021/12/06 00:53:20;;;;;;;;;2.50;2.50;;;;;;;;5219739;28;10966;-64
2021/12/06 00:55:52;;;;;;;;;1.00;1.00;;;;;;;;5270745;28;9869;-64
2021/12/06 00:58:26;;;;;;;;;1.00;1.00;;;;;;;;5252981;28;9611;-65
2021/12/06 01:00:57;;;;;;;;;8.00;8.00;;;;;;;;5236049;28;9926;-65
2021/12/06 01:03:31;;;;;;;;;4.00;4.00;;;;;;;;5252660;28;10426;-65
2021/12/06 01:06:20;;;;;;;;;4.00;4.00;;;;;;;;5271860;28;10814;-66
2021/12/06 01:08:52;;;;;;;;;1.25;1.25;;;;;;;;5252616;28;10222;-66
2021/12/06 01:11:41;;;;;;;;;1.00;1.00;;;;;;;;5174625;28;10027;-66
2021/12/06 01:14:12;;;;;;;;;3.25;3.25;;;;;;;;5163309;28;9959;-66
2021/12/06 01:17:03;;;;;;;;;10.00;9.25;;;;;;;;5164810;28;10059;-67
2021/12/06 01:19:36;;;;;;;;;3.00;3.00;;;;;;;;5162947;28;10461;-66
2021/12/06 01:24:54;;;;;;;;;4.00;4.00;;;;;;;;5162937;28;10153;-66
2021/12/06 01:27:50;;;;;;;;;5.50;5.50;;;;;;;;5163421;28;10866;-67
2021/12/06 01:41:35;;;;;;;;;0.00;0.00;;;;;;;;5162638;28;10251;-65
2021/12/06 01:44:15;;;;;;;;;0.00;0.00;;;;;;;;5163649;28;10116;-66
2021/12/06 01:46:56;;;;;;;;;0.00;0.00;;;;;;;;5147955;28;10265;-66
2021/12/06 01:49:31;;;;;;;;;0.50;0.50;;;;;;;;5146709;28;10035;-66
2021/12/06 01:52:07;;;;;;;;;4.00;1.50;;;;;;;;5162412;28;10034;-66
2021/12/06 01:54:38;;;;;;;;;1.00;1.00;;;;;;;;5162227;28;10115;-66
2021/12/06 01:57:09;;;;;;;;;3.00;0.00;;;;;;;;5161696;28;10044;-66
2021/12/06 01:59:42;;;;;;;;;0.00;0.00;;;;;;;;5162546;28;10630;-66
2021/12/06 02:02:32;;;;;;;;;5.00;5.00;;;;;;;;5162483;28;9996;-65
2021/12/06 02:05:05;;;;;;;;;1.00;1.00;;;;;;;;5162488;28;10217;-65
2021/12/06 02:07:36;;;;;;;;;4.50;4.00;;;;;;;;5163919;28;10008;-66
2021/12/06 02:10:08;;;;;;;;;4.25;4.25;;;;;;;;5170163;28;10275;-66
2021/12/06 02:12:57;;;;;;;;;5.50;5.50;;;;;;;;5251256;28;10334;-66
2021/12/06 02:18:13;;;;;;;;;9.00;9.00;;;;;;;;5251151;28;10384;-66
2021/12/06 02:20:58;;;;;;;;;2.50;2.50;;;;;;;;5234848;28;10968;-65
2021/12/06 02:23:31;;;;;;;;;6.00;6.00;;;;;;;;5251618;28;10128;-67
2021/12/06 02:26:03;;;;;;;;;3.00;3.00;;;;;;;;5234646;28;10177;-65
2021/12/06 02:28:35;;;;;;;;;3.50;3.50;;;;;;;;5251378;28;10573;-65
2021/12/06 02:31:08;;;;;;;;;2.00;2.00;;;;;;;;5234214;28;9805;-66
2021/12/06 02:33:39;;;;;;;;;6.00;6.00;;;;;;;;5251424;28;10036;-64
2021/12/06 02:36:12;;;;;;;;;4.00;4.00;;;;;;;;5234049;28;10010;-64
2021/12/06 02:38:45;;;;;;;;;0.25;0.25;;;;;;;;5251100;28;10087;-64
2021/12/06 02:41:19;;;;;;;;;1.67;1.67;;;;;;;;5234143;28;9996;-64
2021/12/06 02:43:52;;;;;;;;;0.00;0.00;;;;;;;;5234184;28;9699;-64
2021/12/06 02:46:24;;;;;;;;;3.00;3.00;;;;;;;;5250830;28;9566;-64
2021/12/06 02:48:56;;;;;;;;;4.75;4.75;;;;;;;;5251845;28;10062;-63
2021/12/06 02:51:28;;;;;;;;;4.50;4.50;;;;;;;;5250980;28;10253;-64
2021/12/06 02:54:00;;;;;;;;;3.00;3.00;;;;;;;;5251507;28;10154;-63
2021/12/06 02:56:39;;;;;;;;;11.25;11.25;;;;;;;;5233864;28;10023;-63
2021/12/06 02:59:11;;;;;;;;;8.50;8.50;;;;;;;;5234029;28;10504;-65
2021/12/06 03:01:46;;;;;;;;;8.50;8.50;;;;;;;;5233267;28;10346;-66
2021/12/06 03:04:35;;;;;;;;;11.00;9.00;;;;;;;;5268504;28;10049;-66
2021/12/06 03:07:08;;;;;;;;;9.00;9.00;;;;;;;;5250381;28;11064;-67
2021/12/06 03:09:40;;;;;;;;;6.75;6.75;;;;;;;;5233519;28;10345;-66
2021/12/06 03:12:15;;;;;;;;;4.25;4.25;;;;;;;;5152737;28;11041;-65
2021/12/06 03:14:50;;;;;;;;;4.25;4.25;;;;;;;;5160908;28;10172;-65
2021/12/06 03:17:39;;;;;;;;;22.50;20.50;;;;;;;;5162198;28;10038;-65
2021/12/06 03:20:13;;;;;;;;;7.50;7.50;;;;;;;;5162272;28;10676;-65
2021/12/06 03:23:04;;;;;;;;;9.75;9.75;;;;;;;;5161465;28;10406;-66
2021/12/06 03:25:36;;;;;;;;;16.50;16.50;;;;;;;;5144571;28;10275;-66
2021/12/06 03:28:07;;;;;;;;;18.75;18.25;;;;;;;;5160659;28;10425;-66
2021/12/06 03:30:38;;;;;;;;;15.00;15.00;;;;;;;;5128755;28;10657;-65
2021/12/06 03:33:09;;;;;;;;;16.00;15.50;;;;;;;;5162228;28;10522;-65
2021/12/06 03:35:41;;;;;;;;;4.50;4.50;;;;;;;;5160903;28;8879;-67
2021/12/06 03:38:14;;;;;;;;;0.50;0.50;;;;;;;;5144349;28;10286;-66
2021/12/06 03:41:04;;;;;;;;;7.25;5.75;;;;;;;;5161925;28;10023;-66
2021/12/06 03:43:36;;;;;;;;;3.75;3.75;;;;;;;;5144357;28;10953;-66
2021/12/06 03:46:09;;;;;;;;;0.25;0.25;;;;;;;;5160766;28;10118;-65
2021/12/06 03:48:41;;;;;;;;;4.00;4.00;;;;;;;;5160860;28;9910;-66
2021/12/06 03:51:13;;;;;;;;;4.25;4.25;;;;;;;;5161008;28;10420;-67
2021/12/06 03:53:44;;;;;;;;;5.50;5.00;;;;;;;;5144293;28;10353;-68
2021/12/06 03:56:37;;;;;;;;;4.00;4.00;;;;;;;;5161655;28;10904;-69
2021/12/06 03:59:10;;;;;;;;;3.00;3.00;;;;;;;;5145023;28;10466;-66
2021/12/06 04:01:41;;;;;;;;;4.00;4.00;;;;;;;;5144469;28;10372;-68
2021/12/06 04:04:14;;;;;;;;;4.50;4.50;;;;;;;;5145062;28;10416;-67
2021/12/06 04:06:46;;;;;;;;;3.25;3.25;;;;;;;;5143977;28;10441;-75
2021/12/06 04:09:18;;;;;;;;;12.75;12.25;;;;;;;;5144140;28;10419;-67
2021/12/06 04:11:50;;;;;;;;;1.50;1.50;;;;;;;;5144044;28;10740;-67
2021/12/06 04:14:21;;;;;;;;;9.00;9.00;;;;;;;;5159864;28;10636;-67
2021/12/06 04:16:52;;;;;;;;;19.25;18.25;;;;;;;;5143850;28;10653;-67
2021/12/06 04:19:24;;;;;;;;;8.25;8.25;;;;;;;;5128225;28;10920;-67
2021/12/06 04:21:58;;;;;;;;;44.75;38.25;;;;;;;;5162296;28;8887;-66
2021/12/06 04:24:29;;;;;;;;;26.50;25.75;;;;;;;;5147341;28;11119;-66
2021/12/06 04:27:11;;;;;;;;;9.00;9.00;;;;;;;;5165091;28;11800;-67
2021/12/06 04:29:44;;;;;;;;;15.75;15.75;;;;;;;;5147304;28;10772;-66
2021/12/06 04:32:15;;;;;;;;;11.75;11.75;;;;;;;;5163593;28;10864;-66
2021/12/06 04:34:47;;;;;;;;;13.25;12.50;;;;;;;;5131604;28;10841;-67
2021/12/06 04:37:18;;;;;;;;;18.00;18.00;;;;;;;;5147140;28;10830;-67
2021/12/06 04:39:50;;;;;;;;;26.00;25.25;;;;;;;;5162870;28;10974;-68
2021/12/06 04:42:22;;;;;;;;;27.75;24.50;;;;;;;;5147026;28;11126;-73
2021/12/06 04:44:53;;;;;;;;;31.50;29.00;;;;;;;;5164862;28;11100;-70
2021/12/06 04:47:25;;;;;;;;;18.25;18.25;;;;;;;;5147143;28;11194;-64
2021/12/06 04:49:57;;;;;;;;;25.75;24.25;;;;;;;;5163182;28;11221;-76
2021/12/06 04:52:28;;;;;;;;;24.50;23.75;;;;;;;;5147516;28;11473;-65
2021/12/06 04:55:01;;;;;;;;;9.50;9.50;;;;;;;;5163489;28;11198;-69
2021/12/06 05:01:58;;;;;;;;;9.75;8.50;;;;;;;;5164017;28;10449;-66
2021/12/06 05:04:32;;;;;;;;;8.50;8.00;;;;;;;;5164986;28;10537;-66
2021/12/06 05:07:09;;;;;;;;;22.75;22.75;;;;;;;;5162845;28;10621;-65
2021/12/06 05:09:42;;;;;;;;;25.50;23.50;;;;;;;;5164734;28;11445;-65
2021/12/06 05:12:15;;;;;;;;;9.50;9.50;;;;;;;;5162956;28;11508;-66
2021/12/06 05:19:10;;;;;;;;;2.75;2.50;;;;;;;;5143832;28;10757;-67
2021/12/06 05:21:44;;;;;;;;;11.25;10.00;;;;;;;;5197051;28;10973;-67
2021/12/06 05:24:16;;;;;;;;;3.75;3.75;;;;;;;;5198058;28;11034;-65
2021/12/06 05:26:48;;;;;;;;;17.75;16.25;;;;;;;;5231323;28;10923;-67
2021/12/06 05:29:25;;;;;;;;;16.00;13.25;;;;;;;;5231350;28;12186;-68
2021/12/06 05:31:58;;;;;;;;;10.00;6.75;;;;;;;;5229945;28;11265;-68
2021/12/06 05:34:38;;;;;;;;;24.50;24.50;;;;;;;;5197466;28;11252;-67
2021/12/06 05:41:34;;;;;;;;;13.50;13.50;;;;;;;;5163228;28;10900;-63
2021/12/06 05:44:23;;;;;;;;;38.25;36.50;;;;;;;;5163353;28;11490;-62
2021/12/06 05:51:18;;;;;;;;;34.50;34.00;;;;;;;;5143205;28;11459;-67
2021/12/06 05:58:13;;;;;;;;;28.00;26.25;;;;;;;;5142996;28;11489;-66
2021/12/06 06:00:45;;;;;;;;;30.75;30.50;;;;;;;;5209798;28;11670;-66
2021/12/06 06:03:16;;;;;;;;;4.50;4.50;;;;;;;;5210828;28;11676;-66
2021/12/06 06:05:47;;;;;;;;;18.50;16.75;;;;;;;;5142877;28;11442;-67
2021/12/06 06:08:19;;;;;;;;;30.25;27.00;;;;;;;;5193510;28;11506;-67
2021/12/06 06:10:51;;;;;;;;;50.25;46.75;;;;;;;;5193568;28;11622;-67
2021/12/06 06:13:22;;;;;;;;;68.50;56.75;;;;;;;;5209681;28;11593;-67
2021/12/06 06:15:55;;;;;;;;;92.00;73.00;;;;;;;;5210673;28;11569;-67
2021/12/06 06:18:26;;;;;;;;;54.00;49.25;;;;;;;;5193266;28;12343;-67
2021/12/06 06:29:52;;;;;;;;;47.00;43.25;;;;;;;;5162696;28;12249;-67
2021/12/06 06:32:23;;;;;;;;;29.00;28.50;;;;;;;;5197154;28;11508;-67
2021/12/06 06:34:54;;;;;;;;;38.25;33.25;;;;;;;;5162674;28;8792;-67
2021/12/06 06:37:25;;;;;;;;;34.25;31.25;;;;;;;;5229905;28;8800;-68
2021/12/06 06:39:56;;;;;;;;;47.00;45.00;;;;;;;;5213050;28;8840;-67
2021/12/06 06:42:27;;;;;;;;;47.00;44.50;;;;;;;;5229599;28;11546;-67
2021/12/06 06:44:58;;;;;;;;;40.25;39.00;;;;;;;;5229065;28;8902;-67
2021/12/06 06:47:29;;;;;;;;;37.50;36.00;;;;;;;;5212896;28;11636;-67
2021/12/06 06:50:00;;;;;;;;;78.00;58.00;;;;;;;;5213180;28;11579;-66
2021/12/06 06:52:31;;;;;;;;;25.50;25.00;;;;;;;;5229961;28;8788;-66
2021/12/06 06:55:03;;;;;;;;;40.75;34.00;;;;;;;;5229470;28;8845;-66
2021/12/06 06:57:34;;;;;;;;;26.25;21.75;;;;;;;;5213603;28;8796;-67
2021/12/06 07:00:27;;;;;;;;;31.50;29.25;;;;;;;;5162787;28;11049;-67
2021/12/06 07:02:58;;;;;;;;;24.50;21.25;;;;;;;;5213061;28;12225;-66
2021/12/06 07:05:29;;;;;;;;;12.50;12.50;;;;;;;;5229332;28;10607;-67
2021/12/06 07:08:00;;;;;;;;;20.50;19.00;;;;;;;;5196567;28;8788;-67
2021/12/06 07:10:31;;;;;;;;;3.75;3.75;;;;;;;;5212976;28;8934;-67
2021/12/06 07:13:07;;;;;;;;;19.00;19.00;;;;;;;;5162934;28;12255;-66
2021/12/06 07:15:38;;;;;;;;;11.50;11.00;;;;;;;;5162281;28;10588;-66
2021/12/06 07:18:10;;;;;;;;;8.50;8.50;;;;;;;;5212737;28;10489;-68
2021/12/06 07:20:40;;;;;;;;;22.50;21.75;;;;;;;;5212208;28;10701;-66
2021/12/06 07:23:12;;;;;;;;;4.25;4.00;;;;;;;;5229101;28;8788;-66
2021/12/06 07:25:43;;;;;;;;;26.50;26.50;;;;;;;;5229857;28;8780;-66
2021/12/06 07:28:14;;;;;;;;;27.25;27.25;;;;;;;;5229510;28;10715;-66
2021/12/06 07:30:44;;;;;;;;;19.25;19.25;;;;;;;;5228996;28;9479;-66
2021/12/06 07:33:15;;;;;;;;;25.00;22.50;;;;;;;;5229452;28;9600;-66
2021/12/06 07:35:46;;;;;;;;;25.00;23.00;;;;;;;;5212415;28;8796;-66
2021/12/06 07:38:17;;;;;;;;;21.50;21.25;;;;;;;;5162930;28;8784;-66
2021/12/06 07:40:50;;;;;;;;;20.75;18.75;;;;;;;;5161871;28;8807;-66
2021/12/06 07:43:21;;;;;;;;;8.25;8.25;;;;;;;;5228850;28;11597;-66
2021/12/06 07:45:52;;;;;;;;;12.25;12.25;;;;;;;;5212641;28;10514;-66
2021/12/06 07:48:24;;;;;;;;;27.75;27.00;;;;;;;;5212282;28;9549;-66
2021/12/06 07:50:55;;;;;;;;;13.75;13.50;;;;;;;;5228769;28;10695;-66
2021/12/06 07:53:28;;;;;;;;;19.00;19.00;;;;;;;;5212476;28;8852;-66
2021/12/06 07:55:59;;;;;;;;;28.75;24.75;;;;;;;;5211544;28;10379;-66
2021/12/06 07:58:31;;;;;;;;;30.00;30.00;;;;;;;;5212157;28;11145;-66
2021/12/06 08:01:02;;;;;;;;;0.00;0.00;;;;;;;;5228799;28;10828;-67
2021/12/06 08:03:33;;;;;;;;;15.75;15.75;;;;;;;;5228609;28;10362;-66
2021/12/06 08:06:23;;;;;;;;;24.50;22.50;;;;;;;;5162097;28;10446;-66
2021/12/06 08:08:54;;;;;;;;;34.25;30.75;;;;;;;;5228904;28;10261;-66
2021/12/06 08:11:25;;;;;;;;;21.75;21.75;;;;;;;;5211378;28;8820;-66
2021/12/06 08:13:56;;;;;;;;;22.50;22.50;;;;;;;;5212058;28;11136;-66
2021/12/06 08:16:32;;;;;;;;;27.00;26.50;;;;;;;;5161446;28;10472;-65
2021/12/06 08:19:22;;;;;;;;;20.50;20.00;;;;;;;;5214935;28;8806;-66
2021/12/06 08:21:53;;;;;;;;;11.50;11.50;;;;;;;;5211282;28;10389;-66
2021/12/06 08:24:24;;;;;;;;;27.75;24.50;;;;;;;;5211655;28;10049;-66
2021/12/06 08:26:55;;;;;;;;;27.25;25.50;;;;;;;;5161619;28;8788;-66
2021/12/06 08:29:27;;;;;;;;;29.25;25.75;;;;;;;;5211703;28;10295;-66
2021/12/06 08:31:58;;;;;;;;;30.50;29.75;;;;;;;;5228196;28;8807;-65
2021/12/06 08:34:29;;;;;;;;;14.25;11.00;;;;;;;;5195445;28;10483;-66
2021/12/06 08:37:01;;;;;;;;;13.75;13.75;;;;;;;;5161554;28;8792;-68
2021/12/06 08:39:32;;;;;;;;;12.50;12.50;;;;;;;;5211937;28;11533;-67
2021/12/06 08:42:04;;;;;;;;;29.50;29.50;;;;;;;;5228298;28;10649;-67
2021/12/06 08:44:35;;;;;;;;;24.75;24.50;;;;;;;;5160805;28;8780;-67
2021/12/06 08:47:06;;;;;;;;;13.50;13.50;;;;;;;;5228746;28;10297;-66
2021/12/06 08:49:37;;;;;;;;;9.75;9.75;;;;;;;;5212185;28;9538;-67
2021/12/06 08:52:09;;;;;;;;;21.25;19.50;;;;;;;;5228041;28;9732;-66
2021/12/06 08:54:40;;;;;;;;;30.00;27.00;;;;;;;;5160899;28;9891;-66
2021/12/06 08:57:30;;;;;;;;;21.00;20.50;;;;;;;;5160880;28;10052;-66
2021/12/06 09:00:24;;;;;;;;;12.00;10.25;;;;;;;;5214646;28;10139;-67
2021/12/06 09:02:55;;;;;;;;;20.50;18.00;;;;;;;;5195049;28;9915;-66
2021/12/06 09:05:29;;;;;;;;;22.25;20.75;;;;;;;;5161285;28;10332;-67
2021/12/06 09:08:00;;;;;;;;;21.75;21.75;;;;;;;;5197209;28;10388;-66
2021/12/06 09:10:31;;;;;;;;;15.00;12.25;;;;;;;;5187061;28;10277;-67
2021/12/06 09:13:04;;;;;;;;;9.67;9.67;;;;;;;;5236114;28;8763;-67
2021/12/06 09:15:35;;;;;;;;;7.67;7.67;;;;;;;;5202941;28;10299;-66
2021/12/06 09:18:06;;;;;;;;;8.33;8.33;;;;;;;;5286203;28;9215;-66
2021/12/06 09:20:38;;;;;;;;;12.00;11.33;;;;;;;;5253226;28;8806;-66
2021/12/06 09:23:10;;;;;;;;;0.00;0.00;;;;;;;;5219070;28;9645;-65
2021/12/06 09:25:42;;;;;;;;;6.67;6.67;;;;;;;;5218714;28;9201;-66
2021/12/06 09:28:32;;;;;;;;;9.00;9.00;;;;;;;;5252426;28;9487;-66
2021/12/06 09:31:04;;;;;;;;;9.33;9.33;;;;;;;;5219318;28;9456;-67
2021/12/06 09:33:36;;;;;;;;;3.67;3.67;;;;;;;;5252274;28;9561;-66
2021/12/06 09:36:25;;;;;;;;;6.00;6.00;;;;;;;;5238628;28;9320;-66
2021/12/06 09:38:56;;;;;;;;;12.33;12.33;;;;;;;;5251660;28;9226;-66
2021/12/06 09:41:27;;;;;;;;;0.00;0.00;;;;;;;;5270107;28;8807;-67
2021/12/06 09:44:00;;;;;;;;;3.00;3.00;;;;;;;;5218943;28;9539;-65
2021/12/06 09:46:35;;;;;;;;;3.33;3.33;;;;;;;;5270437;28;10140;-65
2021/12/06 09:49:08;;;;;;;;;6.33;6.00;;;;;;;;5235735;28;10162;-66
2021/12/06 09:51:40;;;;;;;;;8.33;8.33;;;;;;;;5270572;28;9491;-66
2021/12/06 09:54:12;;;;;;;;;21.50;16.50;;;;;;;;5235505;28;9419;-66
2021/12/06 09:56:43;;;;;;;;;5.00;5.00;;;;;;;;5251657;28;9794;-66
2021/12/06 09:59:15;;;;;;;;;17.33;17.33;;;;;;;;5251842;28;10090;-66
2021/12/06 10:01:50;;;;;;;;;10.00;10.00;;;;;;;;5234936;28;9670;-66
2021/12/06 10:04:23;;;;;;;;;6.33;4.67;;;;;;;;5218507;28;9723;-67
2021/12/06 10:06:54;;;;;;;;;11.33;11.33;;;;;;;;5269759;28;9404;-67
2021/12/06 10:09:25;;;;;;;;;6.00;6.00;;;;;;;;5218386;28;9401;-67
2021/12/06 10:11:57;;;;;;;;;15.50;15.50;;;;;;;;5251085;28;9442;-67
2021/12/06 10:14:28;;;;;;;;;54.25;43.25;;;;;;;;5218818;28;8781;-67
2021/12/06 10:16:59;;;;;;;;;105.25;76.00;;;;;;;;5251446;28;10516;-67
2021/12/06 10:19:31;;;;;;;;;80.50;63.00;;;;;;;;5285079;28;11524;-67
2021/12/06 10:22:02;;;;;;;;;24.00;24.00;;;;;;;;5285644;28;8852;-66
2021/12/06 10:24:33;;;;;;;;;6.00;6.00;;;;;;;;5218715;28;9852;-65
2021/12/06 10:27:11;;;;;;;;;6.00;6.00;;;;;;;;5251366;28;8801;-65
2021/12/06 10:29:46;;;;;;;;;2.33;2.33;;;;;;;;5251347;28;11418;-65
2021/12/06 10:32:19;;;;;;;;;4.67;4.67;;;;;;;;5269305;28;9039;-66
2021/12/06 10:35:11;;;;;;;;;2.33;2.33;;;;;;;;5269433;28;9317;-66
2021/12/06 10:37:51;;;;;;;;;5.33;5.33;;;;;;;;5218183;28;9476;-66
2021/12/06 10:40:41;;;;;;;;;5.33;5.33;;;;;;;;5236911;28;9263;-65
2021/12/06 10:43:12;;;;;;;;;13.33;13.33;;;;;;;;5269090;28;9388;-66
2021/12/06 10:45:47;;;;;;;;;10.00;6.33;;;;;;;;5217483;28;10981;-66
2021/12/06 10:48:19;;;;;;;;;8.33;8.33;;;;;;;;5217582;28;9526;-66
2021/12/06 10:50:50;;;;;;;;;6.33;6.33;;;;;;;;5251031;28;9426;-66
2021/12/06 10:53:23;;;;;;;;;10.00;10.00;;;;;;;;5268950;28;9619;-66
2021/12/06 10:55:56;;;;;;;;;27.00;27.00;;;;;;;;5268429;28;8778;-65
2021/12/06 10:58:46;;;;;;;;;20.00;20.00;;;;;;;;5252896;28;10877;-65
2021/12/06 11:01:35;;;;;;;;;26.25;24.75;;;;;;;;5250074;28;9930;-65
2021/12/06 11:04:08;;;;;;;;;9.00;7.00;;;;;;;;5284291;28;10202;-66
2021/12/06 11:06:42;;;;;;;;;4.00;3.33;;;;;;;;5268515;28;8840;-65
2021/12/06 11:09:34;;;;;;;;;6.00;6.00;;;;;;;;5252596;28;9452;-66
2021/12/06 11:12:06;;;;;;;;;15.50;15.50;;;;;;;;5268082;28;10189;-66
2021/12/06 11:14:39;;;;;;;;;6.33;6.33;;;;;;;;5216707;28;9897;-65
2021/12/06 11:17:12;;;;;;;;;23.00;23.00;;;;;;;;5216778;28;9549;-66
2021/12/06 11:19:44;;;;;;;;;9.67;9.67;;;;;;;;5217108;28;9799;-65
2021/12/06 11:22:20;;;;;;;;;10.67;10.00;;;;;;;;5272660;28;9709;-67
2021/12/06 11:24:52;;;;;;;;;14.67;14.67;;;;;;;;5267172;28;9487;-66
2021/12/06 11:27:26;;;;;;;;;12.00;11.33;;;;;;;;5233002;28;9578;-66
2021/12/06 11:30:02;;;;;;;;;13.00;13.00;;;;;;;;5232468;28;9587;-65
2021/12/06 11:32:35;;;;;;;;;17.75;17.50;;;;;;;;5232526;28;10366;-66
2021/12/06 11:35:11;;;;;;;;;10.50;9.00;;;;;;;;5232857;28;10767;-66
2021/12/06 11:37:43;;;;;;;;;17.00;15.50;;;;;;;;5267621;28;9814;-66
2021/12/06 11:40:26;;;;;;;;;10.67;10.67;;;;;;;;5249505;28;9881;-66
2021/12/06 11:42:59;;;;;;;;;11.33;11.33;;;;;;;;5232890;28;10474;-65
2021/12/06 11:46:02;;;;;;;;;7.00;7.00;;;;;;;;5249651;28;10366;-66
2021/12/06 11:48:32;;;;;;;;;7.00;6.67;;;;;;;;5248970;28;9401;-66
2021/12/06 11:51:03;;;;;;;;;13.00;13.00;;;;;;;;5249459;28;10249;-66
2021/12/06 11:53:39;;;;;;;;;4.67;4.67;;;;;;;;5215838;28;9377;-65
2021/12/06 11:56:14;;;;;;;;;6.00;6.00;;;;;;;;5249862;28;9473;-66
2021/12/06 11:58:47;;;;;;;;;15.00;15.00;;;;;;;;5233319;28;9533;-65
2021/12/06 12:01:18;;;;;;;;;52.75;47.75;;;;;;;;5249679;28;9731;-65
2021/12/06 12:03:51;;;;;;;;;41.75;35.00;;;;;;;;5232495;28;11036;-65
2021/12/06 12:06:25;;;;;;;;;21.50;20.00;;;;;;;;5249838;28;11563;-65
2021/12/06 12:09:11;;;;;;;;;0.00;0.00;;;;;;;;5232755;28;10769;-65
2021/12/06 12:12:03;;;;;;;;;15.25;15.25;;;;;;;;5232815;28;10573;-65
2021/12/06 12:14:37;;;;;;;;;37.75;35.25;;;;;;;;5216385;28;9875;-66
2021/12/06 12:17:11;;;;;;;;;15.25;15.25;;;;;;;;5216332;28;11217;-66
2021/12/06 12:19:43;;;;;;;;;12.00;12.00;;;;;;;;5215854;28;10113;-66
2021/12/06 12:22:15;;;;;;;;;22.50;21.25;;;;;;;;5265858;28;10136;-66
2021/12/06 12:24:53;;;;;;;;;18.75;17.50;;;;;;;;5249480;28;10226;-67
2021/12/06 12:30:07;;;;;;;;;20.50;19.50;;;;;;;;5232273;28;10318;-65
2021/12/06 12:32:38;;;;;;;;;28.25;23.75;;;;;;;;5215596;28;10157;-65
2021/12/06 12:35:14;;;;;;;;;6.00;5.00;;;;;;;;5248909;28;10335;-66
2021/12/06 12:37:45;;;;;;;;;19.50;15.75;;;;;;;;5216000;28;8901;-65
2021/12/06 12:40:21;;;;;;;;;9.00;9.00;;;;;;;;5232105;28;10701;-66
2021/12/06 12:42:58;;;;;;;;;7.33;7.33;;;;;;;;5218439;28;9817;-66
2021/12/06 12:45:33;;;;;;;;;11.75;10.75;;;;;;;;5219641;28;9566;-65
2021/12/06 12:48:26;;;;;;;;;24.50;24.00;;;;;;;;5270995;28;9853;-65
2021/12/06 12:51:01;;;;;;;;;21.50;21.00;;;;;;;;5236077;28;10070;-67
2021/12/06 12:53:47;;;;;;;;;14.50;14.50;;;;;;;;5235854;28;10327;-66
2021/12/06 12:56:23;;;;;;;;;11.25;10.00;;;;;;;;5252897;28;10294;-66
2021/12/06 12:58:54;;;;;;;;;31.50;30.75;;;;;;;;5235978;28;10201;-68
2021/12/06 13:01:26;;;;;;;;;38.50;38.50;;;;;;;;5270526;28;10445;-65
2021/12/06 13:03:59;;;;;;;;;46.75;42.25;;;;;;;;5240566;28;10809;-65
2021/12/06 13:06:34;;;;;;;;;32.00;27.75;;;;;;;;5218893;28;11099;-65
2021/12/06 13:09:18;;;;;;;;;38.75;37.25;;;;;;;;5214989;28;11070;-65
2021/12/06 13:12:02;;;;;;;;;26.00;25.00;;;;;;;;5231483;28;11009;-65
2021/12/06 13:14:46;;;;;;;;;24.75;22.25;;;;;;;;5214949;28;10644;-65
2021/12/06 13:17:29;;;;;;;;;24.75;23.50;;;;;;;;5199055;28;10698;-66
2021/12/06 13:20:25;;;;;;;;;41.50;38.25;;;;;;;;5237580;28;10834;-66
2021/12/06 13:23:04;;;;;;;;;45.50;43.00;;;;;;;;5269532;28;11251;-65
2021/12/06 13:25:36;;;;;;;;;38.75;37.50;;;;;;;;5247947;28;11551;-66
2021/12/06 13:28:10;;;;;;;;;41.00;39.00;;;;;;;;5215324;28;11148;-68
2021/12/06 13:30:41;;;;;;;;;43.00;39.25;;;;;;;;5235229;28;12174;-63
2021/12/06 13:33:17;;;;;;;;;26.25;23.25;;;;;;;;5251721;28;11081;-63
2021/12/06 13:35:56;;;;;;;;;22.50;21.50;;;;;;;;5251426;28;10927;-63
2021/12/06 13:38:37;;;;;;;;;26.75;25.75;;;;;;;;5251182;28;10524;-63
2021/12/06 13:41:08;;;;;;;;;27.25;25.25;;;;;;;;5269155;28;10490;-63
2021/12/06 13:43:48;;;;;;;;;9.75;9.50;;;;;;;;5242192;28;10688;-64
2021/12/06 13:46:19;;;;;;;;;37.50;35.25;;;;;;;;5251163;28;9496;-63
2021/12/06 13:53:22;;;;;;;;;21.75;20.50;;;;;;;;5268770;28;9416;-62
2021/12/06 13:55:54;;;;;;;;;42.50;34.75;;;;;;;;5252034;28;11377;-63
2021/12/06 13:58:25;;;;;;;;;52.75;47.00;;;;;;;;5235505;28;11902;-63
2021/12/06 14:01:00;;;;;;;;;43.50;39.50;;;;;;;;5234540;28;11490;-63
2021/12/06 14:03:40;;;;;;;;;62.25;52.00;;;;;;;;5234351;28;11475;-63
2021/12/06 14:06:13;;;;;;;;;47.00;45.75;;;;;;;;5251821;28;11503;-63
2021/12/06 14:13:09;;;;;;;;;30.25;28.50;;;;;;;;5262849;28;11911;-64
2021/12/06 14:16:02;;;;;;;;;38.00;31.25;;;;;;;;5253778;28;11012;-64
2021/12/06 14:18:35;;;;;;;;;16.75;16.50;;;;;;;;5234840;28;10568;-64
2021/12/06 14:21:06;;;;;;;;;32.75;32.00;;;;;;;;5217398;28;10300;-64
2021/12/06 14:23:37;;;;;;;;;39.50;35.50;;;;;;;;5269360;28;10534;-64
2021/12/06 14:26:08;;;;;;;;;80.50;64.50;;;;;;;;5269023;28;8798;-64
2021/12/06 14:28:46;;;;;;;;;55.75;49.25;;;;;;;;5250783;28;8825;-64
2021/12/06 14:31:17;;;;;;;;;64.25;51.25;;;;;;;;5269046;28;9497;-64
2021/12/06 14:33:47;;;;;;;;;78.00;62.25;;;;;;;;5217508;28;11458;-64
2021/12/06 14:36:21;;;;;;;;;65.75;53.50;;;;;;;;5250948;28;8790;-64
2021/12/06 14:38:52;;;;;;;;;55.25;49.00;;;;;;;;5250719;28;8778;-64
2021/12/06 14:41:23;;;;;;;;;59.50;46.50;;;;;;;;5268908;28;11475;-64
2021/12/06 14:43:54;;;;;;;;;64.75;53.00;;;;;;;;5251018;28;9445;-64
2021/12/06 14:46:25;;;;;;;;;35.00;31.25;;;;;;;;5268489;28;8786;-64
2021/12/06 14:48:56;;;;;;;;;17.75;16.25;;;;;;;;5250412;28;8778;-64
2021/12/06 14:51:47;;;;;;;;;33.50;31.00;;;;;;;;5253576;28;11396;-65
2021/12/06 14:54:24;;;;;;;;;21.50;20.25;;;;;;;;5250247;28;10349;-63
2021/12/06 14:57:02;;;;;;;;;17.00;17.00;;;;;;;;5268910;28;10036;-65
2021/12/06 14:59:51;;;;;;;;;14.75;14.25;;;;;;;;5250415;28;9959;-64
2021/12/06 15:02:23;;;;;;;;;16.25;14.25;;;;;;;;5233383;28;10645;-64
2021/12/06 15:05:02;;;;;;;;;0.75;0.75;;;;;;;;5233419;28;9743;-63
2021/12/06 15:07:56;;;;;;;;;26.00;26.00;;;;;;;;5252865;28;9872;-64
2021/12/06 15:10:27;;;;;;;;;12.00;10.50;;;;;;;;5250353;28;10504;-65
2021/12/06 15:12:59;;;;;;;;;33.25;27.50;;;;;;;;5233423;28;10316;-65
2021/12/06 15:15:32;;;;;;;;;37.00;32.75;;;;;;;;5249707;28;10929;-64
2021/12/06 15:18:06;;;;;;;;;39.25;37.50;;;;;;;;5250655;28;10757;-66
2021/12/06 15:20:38;;;;;;;;;53.50;46.00;;;;;;;;5233110;28;10851;-65
2021/12/06 15:23:32;;;;;;;;;44.50;43.50;;;;;;;;5250400;28;11486;-66
2021/12/06 15:26:06;;;;;;;;;82.75;61.75;;;;;;;;5249451;28;11062;-65
2021/12/06 15:28:38;;;;;;;;;66.75;54.00;;;;;;;;5268317;28;11527;-64
2021/12/06 15:31:10;;;;;;;;;68.25;56.75;;;;;;;;5216630;28;11400;-66
2021/12/06 15:34:00;;;;;;;;;86.25;66.00;;;;;;;;5267768;28;12167;-66
2021/12/06 15:36:31;;;;;;;;;63.50;51.00;;;;;;;;5249510;28;11561;-65
2021/12/06 15:39:07;;;;;;;;;59.75;51.50;;;;;;;;5283135;28;11408;-65
2021/12/06 15:41:48;;;;;;;;;65.50;53.00;;;;;;;;5216436;28;11517;-65
2021/12/06 15:44:25;;;;;;;;;97.50;72.50;;;;;;;;5216831;28;11503;-65
2021/12/06 15:47:05;;;;;;;;;40.25;37.25;;;;;;;;5216747;28;11582;-66
2021/12/06 15:49:39;;;;;;;;;66.75;56.50;;;;;;;;5233076;28;11529;-66
2021/12/06 15:52:25;;;;;;;;;60.50;50.50;;;;;;;;5232954;28;12156;-66
2021/12/06 15:54:58;;;;;;;;;29.25;28.25;;;;;;;;5249850;28;11491;-65
2021/12/06 15:57:32;;;;;;;;;26.25;25.25;;;;;;;;5250225;28;10781;-65
2021/12/06 16:00:19;;;;;;;;;51.25;45.75;;;;;;;;5232602;28;10516;-65
2021/12/06 16:02:54;;;;;;;;;88.00;68.75;;;;;;;;5232661;28;11143;-64
2021/12/06 16:05:27;;;;;;;;;44.50;42.25;;;;;;;;5232646;28;12178;-63
2021/12/06 16:08:04;;;;;;;;;46.75;41.25;;;;;;;;5249631;28;11832;-64
2021/12/06 16:10:37;;;;;;;;;70.75;56.25;;;;;;;;5249504;28;11513;-64
2021/12/06 16:17:38;;;;;;;;;47.75;41.50;;;;;;;;5266673;28;11420;-67
2021/12/06 16:20:30;;;;;;;;;45.50;41.25;;;;;;;;5267380;28;11012;-65